Time;durP1;ratioP1;P1;durP2;ratioP2;P2;SDS_P1;SDS_P2;PMS_P1;PMS_P2;Temp;Humidity;BMP_temperature;BMP_pressure;BME280_temperature;BME280_humidity;BME280_pressure;Samples;Min_cycle;Max_cycle;Signal;HPM_P1;HPM_P2
2023/04/01 00:00:25;;;;;;;15.30;9.80;;;;;;;11.54;70.86;93993.38;5074942;28;20538;-79
2023/04/01 00:02:52;;;;;;;20.70;9.80;;;;;;;11.35;71.68;93994.47;5074969;28;20485;-79
2023/04/01 00:05:19;;;;;;;15.33;9.97;;;;;;;11.38;71.68;93988.88;5075100;28;20453;-80
2023/04/01 00:07:45;;;;;;;14.20;7.57;;;;;;;11.42;71.97;93998.09;5074866;28;20475;-79
2023/04/01 00:10:14;;;;;;;10.50;8.97;;;;;;;11.36;71.69;93993.47;5074708;28;20590;-79
2023/04/01 00:12:42;;;;;;;11.70;7.93;;;;;;;11.42;70.56;93990.22;5056089;28;20448;-80
2023/04/01 00:15:10;;;;;;;21.77;8.70;;;;;;;11.47;70.79;93988.75;5074592;28;20440;-79
2023/04/01 00:17:37;;;;;;;16.00;9.07;;;;;;;11.53;70.28;93995.19;5074645;28;20444;-79
2023/04/01 00:20:05;;;;;;;16.60;8.40;;;;;;;11.61;69.91;93989.16;5074631;28;20808;-78
2023/04/01 00:22:32;;;;;;;17.00;8.90;;;;;;;11.61;69.75;93995.25;5074367;28;20495;-79
2023/04/01 00:24:59;;;;;;;15.67;10.47;;;;;;;11.66;69.98;93990.31;5074302;28;20445;-79
2023/04/01 00:27:27;;;;;;;16.67;10.43;;;;;;;11.69;69.82;93997.88;5074789;28;20441;-79
2023/04/01 00:29:54;;;;;;;14.90;8.50;;;;;;;11.73;69.89;93999.22;5074211;28;20490;-79
2023/04/01 00:32:21;;;;;;;13.83;8.50;;;;;;;11.78;69.78;93991.69;5039349;28;20432;-79
2023/04/01 00:34:51;;;;;;;10.70;7.77;;;;;;;11.72;69.55;93994.13;5074712;28;20493;-78
2023/04/01 00:37:18;;;;;;;12.17;8.37;;;;;;;11.76;70.42;93993.63;5022662;28;20531;-79
2023/04/01 00:39:45;;;;;;;18.70;9.80;;;;;;;11.85;69.73;93989.25;5074172;28;20781;-79
2023/04/01 00:42:13;;;;;;;18.40;10.67;;;;;;;11.90;69.46;93979.09;5074339;28;20491;-79
2023/04/01 00:44:42;;;;;;;16.40;11.07;;;;;;;11.94;69.08;93969.09;5074174;28;20509;-80
2023/04/01 00:47:09;;;;;;;14.37;9.50;;;;;;;12.05;69.47;93980.09;5074241;28;20456;-79
2023/04/01 00:49:40;;;;;;;18.13;10.50;;;;;;;12.10;69.46;93967.28;5073951;28;20441;-79
2023/04/01 00:52:09;;;;;;;13.80;9.23;;;;;;;11.89;70.14;93961.69;5074371;28;20445;-79
2023/04/01 00:54:37;;;;;;;15.83;10.83;;;;;;;11.99;69.61;93956.28;5073964;28;20945;-80
2023/04/01 00:57:09;;;;;;;18.30;11.00;;;;;;;11.96;70.05;93946.09;5074004;28;20437;-79
2023/04/01 00:59:45;;;;;;;20.10;11.30;;;;;;;12.01;70.01;93957.75;5074147;28;20930;-79
2023/04/01 01:02:14;;;;;;;15.87;10.40;;;;;;;12.05;70.11;93953.00;5073518;28;20484;-79
2023/04/01 01:04:41;;;;;;;11.10;9.00;;;;;;;12.09;70.93;93949.06;5073765;28;20498;-79
2023/04/01 01:07:19;;;;;;;15.57;9.07;;;;;;;12.17;70.36;93954.34;5073823;28;20474;-78
2023/04/01 01:09:56;;;;;;;8.80;7.10;;;;;;;12.14;69.84;93949.38;5073803;28;20808;-79
2023/04/01 01:12:31;;;;;;;17.77;7.60;;;;;;;12.17;68.92;93938.56;5073639;28;20457;-79
2023/04/01 01:15:07;;;;;;;9.13;6.20;;;;;;;12.09;68.75;93935.91;5073944;28;20879;-79
2023/04/01 01:17:45;;;;;;;13.50;7.30;;;;;;;12.13;67.93;93931.97;5073606;28;20480;-80
2023/04/01 01:20:25;;;;;;;12.30;7.13;;;;;;;12.19;68.56;93920.81;5054429;28;20437;-80
2023/04/01 01:23:29;;;;;;;7.80;6.53;;;;;;;11.63;67.79;93905.75;5073694;28;20567;-79
2023/04/01 01:26:10;;;;;;;9.93;6.00;;;;;;;11.44;68.88;93905.03;5010381;28;20591;-79
2023/04/01 01:28:50;;;;;;;12.30;6.77;;;;;;;11.72;68.92;93923.16;5011377;28;20439;-79
2023/04/01 01:31:24;;;;;;;10.60;6.63;;;;;;;11.87;68.42;93926.03;5011089;28;20447;-80
2023/04/01 01:34:15;;;;;;;9.47;5.43;;;;;;;11.80;68.22;93907.44;5011295;28;20451;-78
2023/04/01 01:36:45;;;;;;;8.30;5.57;;;;;;;11.91;66.08;93906.31;5011324;28;20452;-79
2023/04/01 01:39:14;;;;;;;18.00;6.33;;;;;;;12.00;66.84;93911.41;5011050;28;20455;-79
2023/04/01 01:41:44;;;;;;;6.53;5.60;;;;;;;12.17;67.13;93901.75;5010443;28;20498;-78
2023/04/01 01:44:16;;;;;;;10.40;5.67;;;;;;;12.28;67.12;93898.78;5010965;28;20843;-80
2023/04/01 01:46:45;;;;;;;13.93;6.17;;;;;;;12.21;65.96;93882.03;5011000;28;20447;-79
2023/04/01 01:49:13;;;;;;;7.03;5.90;;;;;;;12.12;66.64;93884.78;5011054;28;20434;-80
2023/04/01 01:51:43;;;;;;;12.80;6.50;;;;;;;12.18;67.49;93902.56;4978193;28;20443;-79
2023/04/01 01:54:14;;;;;;;13.93;5.90;;;;;;;12.13;66.93;93879.38;5011056;28;20550;-79
2023/04/01 01:56:43;;;;;;;13.77;7.00;;;;;;;12.08;67.90;93893.00;5010657;28;20475;-79
2023/04/01 01:59:13;;;;;;;13.30;7.17;;;;;;;12.14;67.71;93888.06;5010932;28;20439;-79
2023/04/01 02:01:44;;;;;;;10.17;7.33;;;;;;;12.17;68.23;93879.88;4983514;28;20878;-78
2023/04/01 02:04:12;;;;;;;20.60;6.37;;;;;;;12.21;67.60;93874.13;5072934;28;20568;-80
2023/04/01 02:06:47;;;;;;;8.80;5.80;;;;;;;11.97;67.77;93866.22;5073004;28;20481;-79
2023/04/01 02:09:14;;;;;;;12.23;6.43;;;;;;;11.52;69.81;93867.44;5072663;28;20543;-79
2023/04/01 02:11:45;;;;;;;9.40;6.40;;;;;;;11.64;69.20;93868.78;5072284;28;20444;-79
2023/04/01 02:14:16;;;;;;;12.63;6.73;;;;;;;11.86;68.63;93858.69;5072718;28;20841;-79
2023/04/01 02:16:48;;;;;;;11.97;7.10;;;;;;;11.99;67.75;93861.63;5072808;28;20907;-78
2023/04/01 02:19:22;;;;;;;14.13;7.77;;;;;;;12.07;68.13;93856.34;5072473;28;20445;-80
2023/04/01 02:21:51;;;;;;;12.30;7.10;;;;;;;12.18;67.32;93852.59;5072684;28;20445;-79
2023/04/01 02:24:22;;;;;;;9.37;5.90;;;;;;;12.24;66.92;93849.31;5072329;28;20571;-80
2023/04/01 02:26:51;;;;;;;10.90;6.43;;;;;;;12.23;66.46;93852.91;5072414;28;20450;-79
2023/04/01 02:29:20;;;;;;;10.80;8.33;;;;;;;12.19;67.28;93846.34;5072169;28;20445;-79
2023/04/01 02:31:47;;;;;;;9.80;7.13;;;;;;;12.18;67.38;93834.19;5072244;28;20443;-78
2023/04/01 02:34:15;;;;;;;10.83;6.50;;;;;;;12.18;67.07;93845.53;5072259;28;20449;-80
2023/04/01 02:36:42;;;;;;;12.07;7.30;;;;;;;12.25;67.31;93848.31;5072509;28;20437;-78
2023/04/01 02:39:10;;;;;;;14.40;8.43;;;;;;;12.24;66.47;93834.34;5072173;28;20439;-78
2023/04/01 02:41:40;;;;;;;12.13;7.50;;;;;;;12.30;66.35;93838.94;5072312;28;20445;-79
2023/04/01 02:44:08;;;;;;;10.73;7.93;;;;;;;12.33;66.46;93841.22;5072422;28;20481;-79
2023/04/01 02:46:35;;;;;;;13.43;7.43;;;;;;;12.36;66.81;93846.16;5072604;28;20445;-78
2023/04/01 02:49:01;;;;;;;20.07;10.10;;;;;;;12.36;66.46;93854.03;5072217;28;20510;-78
2023/04/01 02:51:28;;;;;;;15.40;6.80;;;;;;;12.23;66.32;93851.09;5072295;28;20444;-79
2023/04/01 02:53:55;;;;;;;11.50;6.63;;;;;;;12.23;66.13;93861.63;5055389;28;20446;-79
2023/04/01 02:56:23;;;;;;;10.70;6.53;;;;;;;12.29;66.54;93874.13;5076506;28;20820;-79
2023/04/01 02:58:50;;;;;;;9.50;7.60;;;;;;;12.33;65.98;93874.59;5057370;28;20440;-79
2023/04/01 03:01:17;;;;;;;10.43;7.13;;;;;;;12.40;66.39;93880.84;5076274;28;20448;-79
2023/04/01 03:03:44;;;;;;;12.93;7.53;;;;;;;12.36;66.92;93875.09;5076024;28;20894;-78
2023/04/01 03:06:13;;;;;;;13.17;8.40;;;;;;;12.23;67.27;93877.41;5075820;28;20490;-77
2023/04/01 03:08:40;;;;;;;12.77;6.90;;;;;;;12.23;67.20;93881.84;5076332;28;20863;-79
2023/04/01 03:11:07;;;;;;;15.57;7.77;;;;;;;12.27;67.54;93899.75;5075929;28;20474;-79
2023/04/01 03:13:35;;;;;;;11.00;8.70;;;;;;;11.92;68.69;93886.94;5075664;28;20886;-79
2023/04/01 03:16:02;;;;;;;12.73;9.40;;;;;;;11.49;70.38;93896.66;5075903;28;20445;-79
2023/04/01 03:18:29;;;;;;;14.77;9.70;;;;;;;11.59;70.17;93901.78;5075723;28;20440;-78
2023/04/01 03:20:56;;;;;;;12.87;9.30;;;;;;;11.16;72.08;93870.28;5075957;28;20493;-79
2023/04/01 03:23:24;;;;;;;14.13;9.80;;;;;;;11.28;71.94;93893.66;5075973;28;20488;-78
2023/04/01 03:25:51;;;;;;;15.30;9.90;;;;;;;11.40;71.78;93881.84;5075982;28;20520;-80
2023/04/01 03:28:18;;;;;;;13.53;10.40;;;;;;;11.31;72.24;93883.66;5056869;28;20435;-79
2023/04/01 03:30:46;;;;;;;15.63;8.87;;;;;;;11.25;71.59;93891.31;5075301;28;20856;-78
2023/04/01 03:33:13;;;;;;;14.83;9.53;;;;;;;11.13;72.21;93891.63;5074706;28;20440;-80
2023/04/01 03:35:40;;;;;;;15.20;10.27;;;;;;;10.85;71.84;93871.78;5075314;28;20454;-80
2023/04/01 03:38:06;;;;;;;13.47;8.00;;;;;;;10.70;74.01;93868.94;5075545;28;20505;-78
2023/04/01 03:40:37;;;;;;;17.33;9.63;;;;;;;10.84;73.04;93881.47;5074981;28;20947;-79
2023/04/01 03:43:07;;;;;;;17.53;8.53;;;;;;;11.00;73.03;93879.91;5075586;28;20514;-78
2023/04/01 03:45:34;;;;;;;14.80;8.67;;;;;;;11.12;72.72;93879.47;5075554;28;20539;-79
2023/04/01 03:48:03;;;;;;;16.80;8.10;;;;;;;11.27;72.37;93884.09;5075354;28;20502;-78
2023/04/01 03:50:29;;;;;;;10.07;7.90;;;;;;;11.19;71.44;93879.66;5075036;28;20510;-79
2023/04/01 03:52:56;;;;;;;10.37;7.50;;;;;;;11.17;70.53;93871.94;5075120;28;20502;-79
2023/04/01 03:55:23;;;;;;;11.53;7.90;;;;;;;11.27;70.34;93866.53;5075288;28;20455;-78
2023/04/01 03:57:50;;;;;;;10.10;7.40;;;;;;;11.33;69.47;93854.59;5074836;28;20943;-79
2023/04/01 04:00:17;;;;;;;12.00;8.57;;;;;;;11.43;69.77;93850.84;5074882;28;20441;-80
2023/04/01 04:02:44;;;;;;;9.07;7.27;;;;;;;11.52;68.91;93828.03;5056001;28;20452;-79
2023/04/01 04:05:13;;;;;;;13.50;8.67;;;;;;;11.53;69.56;93827.03;5074200;28;20451;-79
2023/04/01 04:07:39;;;;;;;20.47;7.07;;;;;;;11.69;69.72;93821.00;5074861;28;20536;-80
2023/04/01 04:10:08;;;;;;;12.80;6.67;;;;;;;11.77;68.99;93808.69;5074839;28;20839;-80
2023/04/01 04:12:34;;;;;;;10.27;7.50;;;;;;;11.44;69.21;93802.56;5074915;28;20445;-80
2023/04/01 04:15:01;;;;;;;11.27;6.53;;;;;;;11.32;69.07;93793.38;5074515;28;20498;-79
2023/04/01 04:17:28;;;;;;;9.13;5.60;;;;;;;11.38;67.65;93795.34;5074944;28;20444;-79
2023/04/01 04:19:55;;;;;;;7.50;4.53;;;;;;;11.35;67.68;93779.91;5074588;28;20441;-80
2023/04/01 04:22:23;;;;;;;9.50;5.20;;;;;;;11.45;66.87;93767.44;5074847;28;20447;-79
2023/04/01 04:24:51;;;;;;;5.90;4.73;;;;;;;11.56;66.38;93754.97;5075067;28;20487;-79
2023/04/01 04:27:21;;;;;;;8.10;4.60;;;;;;;11.69;66.69;93760.56;5074565;28;20448;-80
2023/04/01 04:29:48;;;;;;;7.50;4.80;;;;;;;11.85;66.34;93768.44;5074736;28;20449;-79
2023/04/01 04:32:14;;;;;;;8.40;4.00;;;;;;;11.99;65.95;93759.09;5074654;28;20452;-78
2023/04/01 04:34:41;;;;;;;6.30;4.90;;;;;;;12.01;65.24;93747.41;5074235;28;20453;-79
2023/04/01 04:37:08;;;;;;;7.63;4.13;;;;;;;12.07;64.36;93746.75;5074333;28;20440;-80
2023/04/01 04:39:36;;;;;;;10.93;7.83;;;;;;;12.11;63.96;93736.72;5074660;28;20443;-80
2023/04/01 04:42:03;;;;;;;14.77;7.40;;;;;;;12.23;64.10;93737.19;5074494;28;20445;-79
2023/04/01 04:44:30;;;;;;;8.57;6.30;;;;;;;12.21;63.30;93728.66;5074127;28;20885;-78
2023/04/01 04:46:56;;;;;;;6.13;5.10;;;;;;;12.30;63.65;93728.44;5074211;28;20448;-79
2023/04/01 04:49:23;;;;;;;10.77;6.83;;;;;;;12.40;63.77;93717.72;5073872;28;20432;-79
2023/04/01 04:51:50;;;;;;;11.77;8.40;;;;;;;12.51;63.91;93713.91;5073965;28;20453;-79
2023/04/01 04:54:17;;;;;;;6.90;4.63;;;;;;;12.54;61.95;93709.13;5073855;28;20449;-79
2023/04/01 04:56:45;;;;;;;9.90;5.43;;;;;;;12.45;60.96;93709.34;5074306;28;20457;-80
2023/04/01 04:59:12;;;;;;;10.63;4.67;;;;;;;12.42;60.36;93699.97;5055043;28;20436;-79
2023/04/01 05:01:39;;;;;;;7.63;4.10;;;;;;;12.48;59.88;93701.94;5073814;28;20442;-79
2023/04/01 05:04:06;;;;;;;9.30;4.63;;;;;;;12.52;59.24;93705.03;5073896;28;20489;-80
2023/04/01 05:06:33;;;;;;;8.10;4.50;;;;;;;12.54;60.35;93697.78;5073902;28;20473;-80
2023/04/01 05:09:00;;;;;;;5.60;4.30;;;;;;;12.63;59.96;93702.00;5073825;28;20458;-79
2023/04/01 05:11:27;;;;;;;10.80;5.07;;;;;;;12.65;60.04;93700.03;5073479;28;20442;-79
2023/04/01 05:13:55;;;;;;;11.00;5.07;;;;;;;12.59;60.74;93690.19;5073369;28;20531;-78
2023/04/01 05:16:22;;;;;;;10.30;4.37;;;;;;;12.43;61.33;93690.25;5072716;28;20444;-78
2023/04/01 05:18:49;;;;;;;6.83;4.57;;;;;;;12.37;62.33;93676.78;5073906;28;20485;-79
2023/04/01 05:21:16;;;;;;;13.53;6.53;;;;;;;12.40;62.27;93692.22;5074004;28;20451;-80
2023/04/01 05:23:43;;;;;;;9.10;5.30;;;;;;;12.16;63.44;93683.63;5073168;28;20476;-79
2023/04/01 05:26:12;;;;;;;9.43;4.20;;;;;;;12.22;63.55;93670.63;5073516;28;20702;-79
2023/04/01 05:28:39;;;;;;;6.80;4.23;;;;;;;12.10;63.85;93670.16;5073095;28;20457;-79
2023/04/01 05:31:08;;;;;;;6.13;4.73;;;;;;;12.34;63.85;93661.34;5073174;28;20939;-79
2023/04/01 05:33:35;;;;;;;9.30;4.63;;;;;;;12.51;63.29;93661.31;5073392;28;20503;-80
2023/04/01 05:36:13;;;;;;;5.67;4.60;;;;;;;12.67;62.62;93672.53;5054260;28;20452;-79
2023/04/01 05:38:40;;;;;;;7.03;5.37;;;;;;;13.10;61.38;93662.44;5073250;28;20500;-78
2023/04/01 05:41:07;;;;;;;15.00;5.20;;;;;;;13.46;59.53;93656.59;5073534;28;20441;-79
2023/04/01 05:43:36;;;;;;;7.27;5.50;;;;;;;13.93;58.94;93654.50;5072863;28;20464;-79
2023/04/01 05:46:03;;;;;;;13.70;7.30;;;;;;;14.62;56.97;93648.94;5072950;28;20443;-79
2023/04/01 05:48:31;;;;;;;17.40;7.70;;;;;;;15.37;55.82;93664.38;5053909;28;20448;-79
2023/04/01 05:50:58;;;;;;;9.00;5.10;;;;;;;16.16;51.27;93644.84;5072883;28;20452;-79
2023/04/01 05:53:25;;;;;;;9.20;5.23;;;;;;;16.88;50.21;93668.28;5073254;28;20462;-79
2023/04/01 05:55:52;;;;;;;16.17;7.70;;;;;;;17.12;50.00;93645.72;5072754;28;20455;-78
2023/04/01 05:58:19;;;;;;;12.13;7.27;;;;;;;17.55;48.92;93652.31;5037718;28;20450;-79
2023/04/01 06:00:45;;;;;;;13.90;5.97;;;;;;;17.73;47.79;93645.63;5071638;28;20467;-79
2023/04/01 06:03:12;;;;;;;9.23;5.30;;;;;;;17.55;48.05;93630.28;5072480;28;20814;-79
2023/04/01 06:05:43;;;;;;;7.13;6.20;;;;;;;17.48;47.84;93642.72;5072664;28;20479;-79
2023/04/01 06:08:13;;;;;;;13.13;5.90;;;;;;;17.54;46.55;93620.69;5072529;28;20448;-79
2023/04/01 06:10:52;;;;;;;11.93;6.03;;;;;;;17.52;47.88;93626.19;5072419;28;20448;-81
2023/04/01 06:13:30;;;;;;;7.57;5.50;;;;;;;17.24;47.56;93623.72;5072656;28;20442;-79
2023/04/01 06:16:07;;;;;;;7.77;6.30;;;;;;;17.36;48.09;93616.00;5072785;28;20438;-79
2023/04/01 06:18:48;;;;;;;13.97;8.50;;;;;;;17.34;48.30;93639.22;5072392;28;20933;-79
2023/04/01 06:21:36;;;;;;;14.00;7.50;;;;;;;17.09;48.49;93636.34;5072697;28;20861;-78
2023/04/01 06:24:21;;;;;;;11.13;7.33;;;;;;;16.66;49.19;93641.09;5072777;28;20493;-79
2023/04/01 06:26:56;;;;;;;12.87;6.97;;;;;;;15.92;52.27;93635.56;5073053;28;20980;-79
2023/04/01 06:29:40;;;;;;;11.23;7.53;;;;;;;15.85;52.37;93640.78;5072635;28;20493;-80
2023/04/01 06:32:27;;;;;;;10.13;7.53;;;;;;;15.47;52.67;93640.25;5072763;28;20452;-78
2023/04/01 06:35:20;;;;;;;14.10;6.87;;;;;;;15.14;53.86;93640.78;5072725;28;21010;-78
2023/04/01 06:38:14;;;;;;;13.03;6.97;;;;;;;14.99;54.51;93620.69;5030923;28;20451;-79
2023/04/01 06:41:10;;;;;;;11.20;8.03;;;;;;;14.76;56.00;93628.81;5030557;28;20450;-79
2023/04/01 06:43:48;;;;;;;13.00;8.27;;;;;;;14.74;56.34;93630.78;5026236;28;20455;-79
2023/04/01 06:46:24;;;;;;;11.40;7.43;;;;;;;14.61;57.10;93631.47;5030126;28;20452;-79
2023/04/01 06:49:07;;;;;;;27.33;8.97;;;;;;;14.35;57.51;93623.19;5030352;28;20454;-79
2023/04/01 06:51:41;;;;;;;13.20;7.17;;;;;;;14.18;57.89;93612.84;5030131;28;20527;-79
2023/04/01 06:54:15;;;;;;;10.70;6.70;;;;;;;14.12;58.82;93610.09;5030291;28;20947;-80
2023/04/01 06:56:46;;;;;;;7.97;6.70;;;;;;;13.86;60.44;93594.72;5030029;28;20456;-78
2023/04/01 06:59:17;;;;;;;12.33;7.87;;;;;;;13.84;60.49;93596.72;5030148;28;20882;-78
2023/04/01 07:01:50;;;;;;;9.50;6.77;;;;;;;13.84;60.56;93591.44;5029994;28;20455;-80
2023/04/01 07:04:21;;;;;;;15.23;9.43;;;;;;;13.94;61.22;93605.22;4997063;28;20479;-81
2023/04/01 07:06:54;;;;;;;23.47;10.50;;;;;;;13.98;61.67;93587.19;5030143;28;20477;-79
2023/04/01 07:09:27;;;;;;;17.30;8.93;;;;;;;14.00;61.82;93591.28;5032673;28;20533;-79
2023/04/01 07:11:58;;;;;;;21.90;10.23;;;;;;;14.07;61.96;93594.81;5032137;28;20789;-79
2023/04/01 07:14:31;;;;;;;23.67;12.10;;;;;;;14.12;62.35;93589.81;5048138;28;20528;-77
2023/04/01 07:17:03;;;;;;;15.73;11.43;;;;;;;14.16;62.34;93593.72;5078019;28;20550;-79
2023/04/01 07:19:37;;;;;;;17.73;11.10;;;;;;;14.30;62.15;93592.06;5073820;28;20954;-80
2023/04/01 07:22:07;;;;;;;12.60;8.93;;;;;;;14.31;61.74;93564.69;5074239;28;20444;-78
2023/04/01 07:24:38;;;;;;;24.90;11.53;;;;;;;14.25;62.50;93568.06;5074483;28;20482;-80
2023/04/01 07:27:09;;;;;;;17.83;9.33;;;;;;;14.27;62.43;93564.25;5075088;28;20445;-79
2023/04/01 07:29:36;;;;;;;14.77;8.40;;;;;;;14.36;62.52;93572.03;5057610;28;20451;-79
2023/04/01 07:32:33;;;;;;;20.97;8.87;;;;;;;14.33;62.60;93575.06;5074634;28;20448;-80
2023/04/01 07:35:12;;;;;;;10.43;8.57;;;;;;;14.27;63.52;93576.63;5075154;28;20454;-79
2023/04/01 07:37:48;;;;;;;11.30;7.70;;;;;;;14.27;64.08;93577.44;5075320;28;20444;-78
2023/04/01 07:40:26;;;;;;;12.00;8.37;;;;;;;14.32;64.13;93576.06;5076383;28;20430;-79
2023/04/01 07:43:09;;;;;;;11.00;8.83;;;;;;;14.36;64.17;93582.59;5078856;28;20457;-79
2023/04/01 07:45:41;;;;;;;15.67;9.60;;;;;;;14.44;63.80;93583.31;5078299;28;20482;-80
2023/04/01 07:48:20;;;;;;;14.93;8.90;;;;;;;14.53;63.48;93584.88;5078158;28;20942;-80
2023/04/01 07:50:56;;;;;;;18.97;8.60;;;;;;;14.55;63.84;93571.50;5044411;28;20441;-80
2023/04/01 07:53:32;;;;;;;25.67;7.70;;;;;;;14.68;62.83;93576.91;5078508;28;20444;-79
2023/04/01 07:56:08;;;;;;;36.87;10.70;;;;;;;14.77;62.67;93573.16;5078362;28;20446;-80
2023/04/01 07:58:44;;;;;;;18.13;12.57;;;;;;;14.81;62.75;93577.06;5078679;28;20868;-80
2023/04/01 08:01:19;;;;;;;22.37;10.80;;;;;;;14.85;63.04;93575.66;5077903;28;20447;-79
2023/04/01 08:04:07;;;;;;;18.03;11.50;;;;;;;14.90;62.28;93561.88;5077880;28;20436;-79
2023/04/01 08:06:41;;;;;;;14.03;8.20;;;;;;;14.88;62.65;93563.91;5077311;28;20499;-80
2023/04/01 08:09:17;;;;;;;19.00;8.80;;;;;;;14.87;62.91;93571.00;5058350;28;20440;-80
2023/04/01 08:11:58;;;;;;;21.77;11.13;;;;;;;14.87;63.47;93563.09;5077318;28;20453;-79
2023/04/01 08:14:36;;;;;;;12.80;8.70;;;;;;;14.93;63.37;93565.97;5076828;28;20864;-79
2023/04/01 08:17:06;;;;;;;15.10;8.60;;;;;;;15.00;63.16;93567.66;5075368;28;20454;-80
2023/04/01 08:19:51;;;;;;;25.33;8.33;;;;;;;15.02;63.71;93552.44;5056779;28;20440;-81
2023/04/01 08:22:24;;;;;;;13.20;8.47;;;;;;;15.06;62.13;93561.66;5075831;28;21009;-79
2023/04/01 08:24:55;;;;;;;22.03;9.87;;;;;;;15.15;62.82;93560.50;5076224;28;20507;-79
2023/04/01 08:27:29;;;;;;;25.13;7.97;;;;;;;15.22;62.50;93536.75;5075662;28;20519;-80
2023/04/01 08:30:00;;;;;;;12.40;7.63;;;;;;;15.27;62.41;93528.25;5075572;28;20448;-81
2023/04/01 08:32:32;;;;;;;13.50;7.13;;;;;;;15.30;61.65;93510.19;5075600;28;20440;-80
2023/04/01 08:35:11;;;;;;;21.40;8.97;;;;;;;15.36;61.44;93514.72;5075130;28;20836;-80
2023/04/01 08:37:41;;;;;;;10.73;7.53;;;;;;;15.44;61.61;93517.22;5075375;28;20446;-79
2023/04/01 08:40:31;;;;;;;10.83;7.53;;;;;;;15.54;61.72;93494.91;5075068;28;20528;-79
2023/04/01 08:43:10;;;;;;;11.00;6.93;;;;;;;15.59;60.63;93489.88;5075034;28;20507;-80
2023/04/01 08:46:02;;;;;;;25.00;8.53;;;;;;;15.57;60.68;93474.16;5080964;28;20545;-79
2023/04/01 08:48:43;;;;;;;14.87;7.60;;;;;;;15.63;60.55;93462.03;5098856;28;20494;-80
2023/04/01 08:51:37;;;;;;;12.70;8.90;;;;;;;15.73;61.05;93465.13;5099145;28;20425;-80
2023/04/01 08:54:19;;;;;;;11.47;8.77;;;;;;;15.84;60.72;93459.28;5099200;28;20429;-81
2023/04/01 08:56:58;;;;;;;16.03;8.93;;;;;;;15.89;60.78;93470.06;5099187;28;20450;-81
2023/04/01 08:59:42;;;;;;;14.00;9.10;;;;;;;15.99;60.74;93465.25;5099118;28;20455;-79
2023/04/01 09:02:33;;;;;;;19.23;8.33;;;;;;;16.06;59.60;93463.44;5099455;28;20429;-80
2023/04/01 09:05:31;;;;;;;18.67;7.80;;;;;;;16.07;58.99;93457.13;5099092;28;20473;-81
2023/04/01 09:08:11;;;;;;;10.67;6.93;;;;;;;16.03;58.23;93457.72;5081118;28;20446;-81
2023/04/01 09:10:58;;;;;;;19.97;8.30;;;;;;;16.06;58.77;93466.09;5099007;28;20438;-80
2023/04/01 09:13:50;;;;;;;12.63;8.17;;;;;;;16.07;57.97;93469.56;5099201;28;20430;-79
2023/04/01 09:16:27;;;;;;;15.10;7.20;;;;;;;16.11;57.86;93461.00;5098756;28;20444;-82
2023/04/01 09:19:22;;;;;;;9.93;6.70;;;;;;;16.08;57.91;93458.75;5098727;28;20435;-81
2023/04/01 09:22:06;;;;;;;11.97;6.47;;;;;;;16.09;57.12;93454.28;5098702;28;20449;-81
2023/04/01 09:24:45;;;;;;;28.33;7.60;;;;;;;16.05;56.11;93458.34;5075967;28;20492;-80
2023/04/01 09:27:24;;;;;;;13.50;6.60;;;;;;;16.11;55.67;93457.56;5098489;28;20422;-81
2023/04/01 09:30:20;;;;;;;11.00;6.27;;;;;;;16.13;55.70;93446.75;5098302;28;20430;-81
2023/04/01 09:32:59;;;;;;;11.27;6.70;;;;;;;16.13;54.34;93442.28;5098175;28;20476;-79
2023/04/01 09:35:39;;;;;;;10.70;6.80;;;;;;;16.09;54.86;93439.22;5080690;28;20429;-82
2023/04/01 09:38:21;;;;;;;10.90;6.90;;;;;;;16.16;54.44;93428.66;5098209;28;20434;-81
2023/04/01 09:40:55;;;;;;;12.67;7.40;;;;;;;16.21;54.43;93428.91;5098391;28;20437;-80
2023/04/01 09:43:55;;;;;;;15.47;6.60;;;;;;;16.16;54.44;93426.00;5098170;28;20452;-82
2023/04/01 09:46:33;;;;;;;12.40;8.33;;;;;;;16.06;54.17;93433.53;5098086;28;20546;-80
2023/04/01 09:49:44;;;;;;;6.73;5.40;;;;;;;16.07;54.65;93430.69;5098190;28;20445;-80
2023/04/01 09:52:25;;;;;;;22.33;7.67;;;;;;;16.19;54.89;93432.72;5097881;28;20447;-80
2023/04/01 09:55:04;;;;;;;8.73;6.17;;;;;;;16.36;55.16;93415.47;5097262;28;20428;-79
2023/04/01 09:58:11;;;;;;;14.80;7.60;;;;;;;16.27;54.44;93406.91;5096437;28;20437;-80
2023/04/01 10:01:07;;;;;;;15.37;7.10;;;;;;;16.28;54.98;93403.25;5002875;28;20436;-79
2023/04/01 10:04:04;;;;;;;11.00;6.30;;;;;;;16.24;55.01;93402.03;4992567;28;20888;-79
2023/04/01 10:07:23;;;;;;;8.67;5.93;;;;;;;16.36;55.11;93407.53;4990780;28;20492;-79
2023/04/01 10:10:19;;;;;;;11.33;6.07;;;;;;;16.46;55.42;93404.47;4991220;28;20451;-79
2023/04/01 10:13:23;;;;;;;11.83;5.33;;;;;;;16.58;56.32;93400.22;4988366;28;20459;-79
2023/04/01 10:16:27;;;;;;;9.33;5.30;;;;;;;16.52;55.70;93383.31;4990814;28;20457;-79
2023/04/01 10:19:24;;;;;;;10.23;5.77;;;;;;;16.53;55.45;93378.84;4933190;29;20523;-80
2023/04/01 10:22:18;;;;;;;17.43;7.47;;;;;;;16.47;55.56;93395.50;4932980;29;20467;-80
2023/04/01 10:25:13;;;;;;;11.57;5.77;;;;;;;16.55;55.28;93393.50;4933162;29;20826;-79
2023/04/01 10:28:07;;;;;;;11.07;5.60;;;;;;;16.42;53.99;93362.53;4933327;29;20441;-80
2023/04/01 10:30:55;;;;;;;19.67;8.70;;;;;;;16.33;54.64;93365.56;4894145;29;20468;-79
2023/04/01 10:33:45;;;;;;;26.73;10.60;;;;;;;16.39;55.57;93380.66;4933095;29;21133;-80
2023/04/01 10:36:48;;;;;;;9.23;7.00;;;;;;;16.35;55.53;93350.31;4933317;29;20452;-79
2023/04/01 10:39:35;;;;;;;9.93;6.00;;;;;;;16.21;55.29;93369.84;4977746;28;20442;-80
2023/04/01 10:42:49;;;;;;;11.70;5.27;;;;;;;16.23;53.84;93357.22;5010235;28;21055;-80
2023/04/01 10:45:54;;;;;;;13.93;5.00;;;;;;;16.25;54.00;93344.59;4951707;29;21041;-79
2023/04/01 10:49:11;;;;;;;11.47;6.03;;;;;;;16.16;55.37;93340.50;4876433;29;20539;-79
2023/04/01 10:52:13;;;;;;;17.17;9.07;;;;;;;16.26;56.87;93351.53;4894771;29;20450;-79
2023/04/01 10:55:13;;;;;;;13.00;8.20;;;;;;;16.27;54.68;93322.22;4898026;28;20450;-80
2023/04/01 10:58:24;;;;;;;8.43;5.00;;;;;;;16.18;53.59;93322.59;4971397;28;20451;-79
2023/04/01 11:01:29;;;;;;;11.47;4.97;;;;;;;16.24;54.19;93329.75;4932608;29;20494;-79
2023/04/01 11:04:43;;;;;;;8.20;6.53;;;;;;;16.23;54.07;93341.34;4857411;29;21124;-80
2023/04/01 11:07:37;;;;;;;11.30;5.90;;;;;;;16.29;52.70;93314.88;4802617;29;21044;-80
2023/04/01 11:10:41;;;;;;;6.33;4.80;;;;;;;16.35;49.41;93313.25;4731660;30;20463;-80
2023/04/01 11:14:00;;;;;;;11.17;4.40;;;;;;;16.50;49.14;93313.88;4731818;30;20552;-80
2023/04/01 11:17:04;;;;;;;13.00;4.40;;;;;;;16.62;47.25;93306.09;4735073;30;20491;-79
2023/04/01 11:23:02;;;;;;;8.17;3.20;;;;;;;16.90;44.52;93309.34;4764255;30;20566;-81
2023/04/01 11:25:57;;;;;;;9.93;3.43;;;;;;;17.00;44.32;93290.38;4762102;30;20530;-79
2023/04/01 11:29:04;;;;;;;7.53;2.73;;;;;;;17.05;43.44;93303.78;4784114;29;20462;-80
2023/04/01 11:31:42;;;;;;;8.60;4.53;;;;;;;17.11;45.62;93303.00;4787746;30;20494;-79
2023/04/01 11:34:25;;;;;;;14.40;4.70;;;;;;;17.14;46.55;93307.88;4787917;30;21787;-79
2023/04/01 11:37:02;;;;;;;6.10;4.20;;;;;;;17.13;45.67;93321.34;4796602;29;20807;-79
2023/04/01 11:39:41;;;;;;;17.97;4.40;;;;;;;17.14;45.15;93339.69;4871151;29;20450;-79
2023/04/01 11:42:20;;;;;;;11.20;3.90;;;;;;;17.15;45.27;93357.22;4916999;29;20473;-81
2023/04/01 11:44:58;;;;;;;9.37;2.90;;;;;;;17.10;47.66;93415.31;4986934;28;20499;-79
2023/04/01 11:47:56;;;;;;;4.67;2.87;;;;;;;16.85;54.53;93440.81;5023773;28;20546;-79
2023/04/01 11:50:34;;;;;;;8.13;3.47;;;;;;;16.56;59.70;93479.06;5053066;28;20450;-80
2023/04/01 11:53:14;;;;;;;7.03;4.53;;;;;;;16.18;65.12;93495.44;5053098;28;20458;-80
2023/04/01 11:55:55;;;;;;;6.43;3.70;;;;;;;15.68;67.29;93512.50;5052822;28;20450;-80
2023/04/01 11:58:43;;;;;;;9.57;3.40;;;;;;;15.41;70.71;93538.75;5052882;28;20448;-79
2023/04/01 12:01:21;;;;;;;5.30;3.20;;;;;;;15.14;73.88;93561.50;5052651;28;20442;-79
2023/04/01 12:04:01;;;;;;;6.20;4.73;;;;;;;14.76;75.58;93568.88;5052993;28;20960;-80
2023/04/01 12:06:36;;;;;;;7.50;3.63;;;;;;;14.52;78.22;93587.69;5052615;28;20491;-79
2023/04/01 12:09:11;;;;;;;7.47;4.23;;;;;;;14.24;80.78;93587.53;5069883;28;20442;-79
2023/04/01 12:11:47;;;;;;;4.83;3.73;;;;;;;14.07;82.03;93542.06;5075304;28;20448;-80